Time;durP1;ratioP1;P1;durP2;ratioP2;P2;SDS_P1;SDS_P2;PMS_P1;PMS_P2;Temp;Humidity;BMP_temperature;BMP_pressure;BME280_temperature;BME280_humidity;BME280_pressure;Samples;Min_cycle;Max_cycle;Signal;HPM_P1;HPM_P2
2022/06/17 00:01:03;;;;;;;10.80;5.47;;;15.30;99.90;;;;;;4991597;28;20095;-49
2022/06/17 00:03:31;;;;;;;5.15;4.65;;;15.10;99.90;;;;;;4991552;28;20038;-50
2022/06/17 00:05:59;;;;;;;6.78;5.18;;;15.10;99.90;;;;;;4991838;28;20060;-49
2022/06/17 00:08:30;;;;;;;6.10;4.97;;;15.30;99.90;;;;;;4991784;28;20393;-52
2022/06/17 00:10:55;;;;;;;6.88;5.40;;;15.10;99.90;;;;;;4991976;28;20082;-51
2022/06/17 00:13:23;;;;;;;5.82;4.75;;;15.10;99.90;;;;;;4991615;28;20109;-50
2022/06/17 00:15:49;;;;;;;6.65;5.75;;;15.00;99.90;;;;;;4991513;28;20042;-52
2022/06/17 00:18:19;;;;;;;7.20;5.63;;;15.00;99.90;;;;;;4991273;28;20129;-50
2022/06/17 00:20:47;;;;;;;7.10;5.63;;;15.10;99.90;;;;;;4991688;28;20121;-51
2022/06/17 00:23:22;;;;;;;7.38;6.38;;;15.20;99.90;;;;;;4991640;28;20045;-51
2022/06/17 00:25:48;;;;;;;6.57;5.97;;;14.80;99.90;;;;;;4991477;28;20461;-52
2022/06/17 00:28:16;;;;;;;7.10;6.40;;;;;;;;;;4991238;28;20054;-50
2022/06/17 00:30:42;;;;;;;7.85;6.45;;;14.80;99.90;;;;;;4991637;28;20488;-53
2022/06/17 00:33:08;;;;;;;8.77;7.90;;;14.70;99.90;;;;;;4991402;28;20095;-53
2022/06/17 00:35:39;;;;;;;8.75;7.25;;;14.70;99.90;;;;;;4990651;28;20082;-51
2022/06/17 00:38:09;;;;;;;8.10;7.30;;;;;;;;;;4990793;28;20038;-49
2022/06/17 00:40:35;;;;;;;8.85;7.90;;;14.70;99.90;;;;;;4991027;28;20050;-53
2022/06/17 00:43:09;;;;;;;9.23;7.20;;;14.70;99.90;;;;;;4990999;28;20485;-50
2022/06/17 00:45:44;;;;;;;8.00;7.30;;;14.70;99.90;;;;;;4991242;28;20113;-49
2022/06/17 00:48:16;;;;;;;11.02;7.85;;;14.60;99.90;;;;;;4990004;28;20054;-49
2022/06/17 00:50:52;;;;;;;10.13;8.35;;;14.60;99.90;;;;;;4990951;28;20046;-49
2022/06/17 00:53:25;;;;;;;9.48;8.30;;;14.50;99.90;;;;;;4991010;28;20147;-49
2022/06/17 00:55:59;;;;;;;9.13;8.30;;;14.50;99.90;;;;;;4990975;28;20070;-51
2022/06/17 00:58:52;;;;;;;9.80;8.90;;;14.50;99.90;;;;;;4991005;28;20051;-50
2022/06/17 01:01:18;;;;;;;10.70;8.93;;;14.50;99.90;;;;;;4991155;28;20046;-50
2022/06/17 01:03:44;;;;;;;8.23;7.55;;;14.50;99.90;;;;;;4990757;28;20408;-50
2022/06/17 01:06:15;;;;;;;10.18;9.18;;;14.40;99.90;;;;;;4990594;28;20051;-51
2022/06/17 01:11:38;;;;;;;10.27;9.23;;;14.40;99.90;;;;;;4990727;28;20058;-54
2022/06/17 01:14:05;;;;;;;10.20;8.88;;;14.40;99.90;;;;;;4990554;28;20053;-48
2022/06/17 01:16:34;;;;;;;9.10;8.25;;;14.30;99.90;;;;;;4990412;28;20039;-51
2022/06/17 01:19:21;;;;;;;9.15;8.30;;;14.40;99.90;;;;;;4990686;28;20121;-50
2022/06/17 01:21:51;;;;;;;8.18;7.40;;;14.30;99.90;;;;;;4990691;28;20412;-49
2022/06/17 01:24:17;;;;;;;9.40;8.60;;;14.30;99.90;;;;;;4991022;28;20129;-49
2022/06/17 01:26:43;;;;;;;9.65;8.75;;;14.40;99.90;;;;;;4990348;28;20038;-50
2022/06/17 01:29:15;;;;;;;9.38;8.40;;;14.40;99.90;;;;;;4990683;28;20049;-49
2022/06/17 01:31:46;;;;;;;9.43;8.52;;;14.50;99.90;;;;;;4990613;28;20117;-49
2022/06/17 01:34:13;;;;;;;11.15;9.85;;;14.40;99.90;;;;;;4990457;28;20042;-49
2022/06/17 01:36:41;;;;;;;10.30;9.30;;;14.40;99.90;;;;;;4990491;28;20038;-51
2022/06/17 01:39:07;;;;;;;10.13;9.20;;;14.40;99.90;;;;;;4990400;28;20125;-50
2022/06/17 01:41:34;;;;;;;10.13;9.20;;;14.40;99.90;;;;;;4990259;28;20121;-49
2022/06/17 01:44:08;;;;;;;10.60;9.70;;;;;;;;;;4990352;28;20488;-49
2022/06/17 01:46:34;;;;;;;10.98;9.88;;;;;;;;;;4972779;28;20289;-49
2022/06/17 01:49:03;;;;;;;11.52;10.32;;;;;;;;;;4993131;28;20050;-49
2022/06/17 01:51:32;;;;;;;11.52;9.43;;;;;;;;;;5123486;23;20059;-52
2022/06/17 01:54:03;;;;;;;10.82;9.73;;;14.10;99.90;;;;;;5143517;27;20062;-51
2022/06/17 01:56:34;;;;;;;11.57;10.38;;;14.00;99.90;;;;;;5155608;27;20039;-52
2022/06/17 01:59:10;;;;;;;11.80;10.68;;;14.10;99.90;;;;;;5155314;27;20404;-53
2022/06/17 02:01:40;;;;;;;12.23;11.02;;;13.90;99.90;;;;;;5137445;27;20481;-52
2022/06/17 02:04:11;;;;;;;13.35;11.27;;;13.90;99.90;;;;;;5137350;27;20568;-53
2022/06/17 02:06:39;;;;;;;13.07;11.77;;;13.80;99.90;;;;;;5137659;27;20043;-51
2022/06/17 02:09:05;;;;;;;13.48;12.18;;;13.80;99.90;;;;;;5153773;27;20039;-50
2022/06/17 02:11:32;;;;;;;12.07;10.98;;;13.80;99.90;;;;;;5158032;27;20484;-51
2022/06/17 02:13:58;;;;;;;12.93;11.70;;;13.90;99.90;;;;;;5157919;27;20031;-48
2022/06/17 02:16:24;;;;;;;12.90;11.60;;;13.80;99.90;;;;;;5157640;27;20180;-47
2022/06/17 02:18:50;;;;;;;12.50;11.30;;;13.80;99.90;;;;;;5157604;27;20053;-47
2022/06/17 02:21:28;;;;;;;17.02;11.90;;;13.70;99.90;;;;;;5139178;27;20468;-48
2022/06/17 02:23:54;;;;;;;12.98;11.43;;;13.70;99.90;;;;;;5157835;27;20075;-48
2022/06/17 02:26:21;;;;;;;13.23;11.48;;;13.70;99.90;;;;;;5139774;27;20097;-48
2022/06/17 02:28:47;;;;;;;12.77;11.50;;;13.60;99.90;;;;;;5137055;27;20043;-48
2022/06/17 02:31:15;;;;;;;16.25;12.43;;;13.70;99.90;;;;;;5136714;27;20485;-50
2022/06/17 02:33:43;;;;;;;12.20;10.93;;;13.60;99.90;;;;;;5137087;27;20066;-50
2022/06/17 02:36:14;;;;;;;11.93;10.88;;;13.60;99.90;;;;;;5136722;27;20144;-52
2022/06/17 02:38:41;;;;;;;13.70;12.40;;;13.60;99.90;;;;;;5136778;27;20050;-51
2022/06/17 02:41:12;;;;;;;12.52;11.25;;;13.60;99.90;;;;;;5137022;27;20050;-48
2022/06/17 02:43:54;;;;;;;13.15;11.88;;;13.60;99.90;;;;;;5136598;27;20035;-48
2022/06/17 02:46:30;;;;;;;13.80;12.40;;;13.60;99.90;;;;;;5136413;27;20488;-47
2022/06/17 02:49:03;;;;;;;13.52;12.10;;;13.60;99.90;;;;;;5136550;27;20084;-48
2022/06/17 02:51:33;;;;;;;14.40;12.93;;;13.60;99.90;;;;;;5136570;27;20062;-49
2022/06/17 02:54:01;;;;;;;14.50;12.63;;;13.50;99.90;;;;;;5136732;27;20416;-47
2022/06/17 02:56:29;;;;;;;13.68;12.30;;;13.50;99.90;;;;;;5136404;27;20047;-51
2022/06/17 02:59:19;;;;;;;13.88;12.57;;;13.50;99.90;;;;;;5140070;27;20031;-51
2022/06/17 03:01:46;;;;;;;12.57;11.38;;;13.50;99.90;;;;;;5157106;27;20119;-48
2022/06/17 03:04:15;;;;;;;14.35;13.05;;;13.50;99.90;;;;;;5156895;27;20031;-49
2022/06/17 03:06:44;;;;;;;17.25;13.32;;;13.50;99.90;;;;;;5157297;27;20035;-49
2022/06/17 03:09:23;;;;;;;14.88;13.43;;;13.50;99.90;;;;;;5156971;27;20035;-48
2022/06/17 03:11:54;;;;;;;13.30;12.00;;;13.50;99.90;;;;;;5156945;27;20043;-51
2022/06/17 03:14:22;;;;;;;13.73;12.43;;;13.50;99.90;;;;;;5156782;27;20053;-49
2022/06/17 03:16:51;;;;;;;15.18;13.48;;;13.50;99.90;;;;;;5156715;27;20042;-48
2022/06/17 03:19:17;;;;;;;15.38;13.77;;;13.50;99.90;;;;;;5156535;27;20126;-48
2022/06/17 03:21:44;;;;;;;15.20;13.82;;;13.60;99.90;;;;;;5156753;27;20078;-51
2022/06/17 03:24:21;;;;;;;15.63;14.13;;;13.70;99.90;;;;;;5156628;27;20452;-51
2022/06/17 03:26:59;;;;;;;14.63;13.32;;;13.60;99.90;;;;;;5156756;27;20039;-53
2022/06/17 03:29:27;;;;;;;14.18;12.77;;;13.60;99.90;;;;;;5156578;27;20092;-49
2022/06/17 03:32:20;;;;;;;13.98;12.63;;;13.70;99.90;;;;;;5156560;27;20035;-53
2022/06/17 03:34:50;;;;;;;14.27;12.77;;;13.80;99.90;;;;;;5156221;27;20504;-49
2022/06/17 03:37:28;;;;;;;15.27;13.60;;;13.80;99.90;;;;;;5156434;27;20043;-49
2022/06/17 03:39:59;;;;;;;14.15;12.85;;;13.90;99.90;;;;;;5156169;27;20400;-49
2022/06/17 03:42:50;;;;;;;14.68;13.18;;;13.90;99.90;;;;;;5156204;27;20039;-48
2022/06/17 03:45:20;;;;;;;14.35;12.90;;;14.00;99.90;;;;;;5155972;27;20373;-49
2022/06/17 03:48:00;;;;;;;14.73;13.27;;;14.10;99.90;;;;;;5156164;27;20475;-52
2022/06/17 03:50:32;;;;;;;15.10;13.55;;;14.20;99.90;;;;;;5155653;27;20057;-48
2022/06/17 03:53:21;;;;;;;14.50;13.23;;;14.20;99.90;;;;;;5156173;27;20042;-48
2022/06/17 03:55:47;;;;;;;14.93;13.52;;;14.30;99.90;;;;;;5155191;27;20047;-49
2022/06/17 03:58:17;;;;;;;14.13;12.82;;;14.40;99.90;;;;;;5155890;27;20535;-49
2022/06/17 04:00:58;;;;;;;14.07;12.77;;;14.40;99.90;;;;;;5155774;27;20042;-49
2022/06/17 04:03:27;;;;;;;14.13;12.80;;;14.50;99.90;;;;;;5155940;27;20049;-50
2022/06/17 04:05:59;;;;;;;15.18;13.68;;;14.60;99.90;;;;;;5137575;27;20054;-49
2022/06/17 04:08:25;;;;;;;14.02;12.35;;;14.70;99.90;;;;;;5155550;27;20496;-52
2022/06/17 04:10:50;;;;;;;13.68;12.35;;;14.70;99.90;;;;;;5155365;27;20043;-50
2022/06/17 04:13:19;;;;;;;14.15;11.63;;;14.80;99.90;;;;;;5155558;27;20073;-50
2022/06/17 04:16:03;;;;;;;16.27;12.32;;;14.90;99.90;;;;;;5136855;27;20035;-49
2022/06/17 04:18:35;;;;;;;14.88;12.25;;;15.00;99.90;;;;;;5155684;27;20045;-52
2022/06/17 04:21:05;;;;;;;13.32;11.88;;;15.10;99.90;;;;;;5155606;27;20073;-48
2022/06/17 04:23:33;;;;;;;12.77;11.57;;;15.20;99.90;;;;;;5136884;27;20070;-48
2022/06/17 04:26:30;;;;;;;13.38;12.07;;;15.40;99.90;;;;;;5155354;27;20058;-48
2022/06/17 04:29:05;;;;;;;16.65;12.77;;;15.60;99.90;;;;;;5155404;27;20035;-51
2022/06/17 04:31:32;;;;;;;12.85;11.55;;;15.90;99.90;;;;;;5155380;27;20034;-52
2022/06/17 04:34:15;;;;;;;12.63;10.85;;;16.00;99.90;;;;;;5155326;27;20038;-48
2022/06/17 04:36:46;;;;;;;12.27;10.88;;;16.70;99.90;;;;;;5155234;27;20046;-51
2022/06/17 04:39:31;;;;;;;12.70;10.98;;;17.80;99.90;;;;;;5155241;27;20091;-48
2022/06/17 04:42:01;;;;;;;13.75;10.27;;;18.70;99.90;;;;;;5154877;27;20493;-51
2022/06/17 04:44:27;;;;;;;10.85;9.77;;;18.40;99.90;;;;;;5154948;27;20083;-49
2022/06/17 04:47:07;;;;;;;14.00;10.00;;;18.30;99.90;;;;;;5154972;27;20043;-48
2022/06/17 04:49:36;;;;;;;10.57;9.55;;;18.10;99.90;;;;;;5154921;27;20557;-48
2022/06/17 04:52:11;;;;;;;11.95;9.85;;;18.00;99.90;;;;;;5154883;27;20050;-48
2022/06/17 04:54:39;;;;;;;10.75;9.57;;;17.80;99.90;;;;;;5154805;27;20042;-52
2022/06/17 04:57:05;;;;;;;10.73;9.55;;;17.70;99.90;;;;;;5154848;27;20095;-49
2022/06/17 04:59:41;;;;;;;10.52;9.60;;;17.60;99.90;;;;;;5154892;27;20043;-48
2022/06/17 05:02:20;;;;;;;10.88;9.88;;;17.60;99.90;;;;;;5154882;27;20049;-48
2022/06/17 05:04:54;;;;;;;13.60;9.13;;;17.70;99.90;;;;;;5136338;27;20141;-49
2022/06/17 05:07:20;;;;;;;10.35;9.18;;;17.80;99.90;;;;;;5154756;27;20445;-49
2022/06/17 05:09:57;;;;;;;9.73;8.73;;;17.80;99.90;;;;;;5136191;27;20034;-48
2022/06/17 05:12:26;;;;;;;;;;;17.80;99.90;;;;;;5155361;27;20039;-49
2022/06/17 05:14:55;;;;;;;12.70;8.30;;;17.90;99.90;;;;;;5154533;27;20009;-50
2022/06/17 05:17:21;;;;;;;10.02;9.00;;;17.80;99.90;;;;;;5154755;27;20118;-51
2022/06/17 05:19:51;;;;;;;10.15;8.65;;;17.70;99.90;;;;;;5154639;27;20523;-52
2022/06/17 05:22:29;;;;;;;10.43;8.30;;;17.70;99.90;;;;;;5156440;27;20045;-52
2022/06/17 05:24:55;;;;;;;;;;;17.70;99.90;;;;;;5162009;27;20054;-51
2022/06/17 05:27:20;;;;;;;10.57;8.15;;;17.60;99.90;;;;;;5161611;27;20389;-50
2022/06/17 05:29:46;;;;;;;8.85;7.95;;;17.70;99.90;;;;;;5161530;27;20392;-48
2022/06/17 05:32:15;;;;;;;9.98;7.85;;;17.80;99.90;;;;;;5142900;27;20488;-49
2022/06/17 05:34:41;;;;;;;10.88;7.82;;;17.70;99.90;;;;;;5161117;27;20043;-49
2022/06/17 05:37:07;;;;;;;9.85;8.30;;;17.80;99.90;;;;;;5161525;27;20031;-48
2022/06/17 05:39:33;;;;;;;9.93;7.25;;;17.70;99.90;;;;;;5161663;27;20042;-51
2022/06/17 05:41:59;;;;;;;11.10;7.90;;;17.80;99.90;;;;;;5161462;27;20510;-51
2022/06/17 05:44:24;;;;;;;10.32;7.68;;;17.80;99.90;;;;;;5161495;27;20043;-50
2022/06/17 05:46:50;;;;;;;9.45;7.72;;;17.90;99.90;;;;;;5161286;27;20062;-52
2022/06/17 05:49:15;;;;;;;8.57;7.75;;;18.00;99.90;;;;;;5161084;27;20054;-49
2022/06/17 05:51:41;;;;;;;10.13;8.20;;;18.00;99.90;;;;;;5161208;27;20129;-51
2022/06/17 05:54:07;;;;;;;8.70;7.78;;;18.10;99.90;;;;;;5161315;27;20492;-51
2022/06/17 05:56:32;;;;;;;8.88;7.90;;;18.20;99.90;;;;;;5161186;27;20381;-49
2022/06/17 05:58:58;;;;;;;9.30;8.27;;;18.30;99.90;;;;;;5161236;27;20378;-50
2022/06/17 06:01:24;;;;;;;9.45;7.85;;;18.30;99.90;;;;;;5161100;27;20184;-51
2022/06/17 06:03:49;;;;;;;9.77;7.00;;;18.30;99.90;;;;;;5161074;27;20508;-52
2022/06/17 06:06:15;;;;;;;9.02;6.75;;;18.40;99.90;;;;;;5161216;27;20122;-53
2022/06/17 06:08:40;;;;;;;10.27;7.30;;;18.40;99.90;;;;;;5161192;27;20035;-52
2022/06/17 06:11:07;;;;;;;8.98;7.40;;;18.50;99.90;;;;;;5161115;27;20039;-51
2022/06/17 06:13:32;;;;;;;10.20;6.80;;;18.60;99.90;;;;;;5161139;27;20039;-49
2022/06/17 06:16:00;;;;;;;10.45;7.07;;;18.70;99.90;;;;;;5161132;27;20107;-50
2022/06/17 06:18:31;;;;;;;8.80;6.47;;;18.70;99.90;;;;;;5142646;27;20190;-51
2022/06/17 06:20:57;;;;;;;7.40;6.47;;;18.90;99.90;;;;;;5161210;27;20175;-48
2022/06/17 06:23:23;;;;;;;8.35;7.03;;;18.90;99.90;;;;;;5160990;27;20042;-49
2022/06/17 06:25:49;;;;;;;8.82;6.75;;;19.00;99.90;;;;;;5161045;27;20050;-51
2022/06/17 06:28:20;;;;;;;12.38;7.65;;;19.10;99.90;;;;;;5160831;27;20373;-51
2022/06/17 06:30:57;;;;;;;10.38;7.13;;;19.10;99.90;;;;;;5160903;27;20031;-52
2022/06/17 06:33:23;;;;;;;12.70;6.50;;;19.20;99.90;;;;;;5160414;27;20095;-52
2022/06/17 06:35:48;;;;;;;9.02;6.72;;;19.10;99.90;;;;;;5157703;27;20035;-49
2022/06/17 06:38:14;;;;;;;8.70;6.82;;;19.00;99.90;;;;;;5157849;27;20500;-54
2022/06/17 06:40:40;;;;;;;9.65;6.97;;;19.00;99.90;;;;;;5157606;27;20087;-49
2022/06/17 06:43:16;;;;;;;7.70;6.90;;;19.00;99.90;;;;;;5157432;27;20445;-51
2022/06/17 06:45:44;;;;;;;7.65;6.95;;;19.00;99.90;;;;;;5157303;27;20035;-50
2022/06/17 06:48:11;;;;;;;7.90;6.82;;;19.00;99.90;;;;;;5157395;27;20122;-50
2022/06/17 06:50:38;;;;;;;8.57;7.50;;;19.10;99.90;;;;;;5157119;27;20392;-51
2022/06/17 06:53:04;;;;;;;10.70;7.35;;;19.20;99.90;;;;;;5157362;27;20055;-50
2022/06/17 06:55:31;;;;;;;9.13;7.38;;;19.30;99.90;;;;;;5157204;27;20442;-52
2022/06/17 06:58:13;;;;;;;11.13;8.10;;;19.30;99.90;;;;;;5157036;27;20133;-52
2022/06/17 07:00:43;;;;;;;8.10;7.30;;;19.60;99.90;;;;;;5157422;27;20544;-52
2022/06/17 07:03:09;;;;;;;8.32;7.22;;;20.10;99.90;;;;;;5157238;27;20547;-53
2022/06/17 07:05:37;;;;;;;10.35;7.72;;;21.00;99.90;;;;;;5156593;27;20043;-52
2022/06/17 07:08:04;;;;;;;8.18;7.30;;;21.90;99.90;;;;;;5156173;27;20047;-53
2022/06/17 07:10:33;;;;;;;7.32;6.70;;;22.00;99.90;;;;;;5156062;27;20035;-52
2022/06/17 07:12:59;;;;;;;8.77;6.47;;;22.00;99.90;;;;;;5156146;27;20130;-51
2022/06/17 07:15:26;;;;;;;7.30;6.68;;;22.00;99.90;;;;;;5156365;27;20050;-50
2022/06/17 07:18:11;;;;;;;7.43;6.25;;;22.30;99.90;;;;;;5156774;27;20434;-52
2022/06/17 07:20:42;;;;;;;7.47;6.38;;;22.80;99.90;;;;;;5156527;27;20408;-49
2022/06/17 07:23:14;;;;;;;11.85;6.68;;;23.50;99.90;;;;;;5156704;27;20039;-50
2022/06/17 07:25:40;;;;;;;7.65;6.32;;;24.10;99.20;;;;;;5156653;27;20031;-51
2022/06/17 07:28:06;;;;;;;7.53;6.47;;;24.40;98.40;;;;;;5156459;27;20507;-50
2022/06/17 07:30:34;;;;;;;8.15;6.00;;;24.50;98.40;;;;;;5156169;27;20201;-49
2022/06/17 07:33:00;;;;;;;10.10;5.70;;;24.40;97.00;;;;;;5137566;27;20515;-50
2022/06/17 07:35:26;;;;;;;8.07;6.55;;;24.60;96.60;;;;;;5155865;27;20042;-51
2022/06/17 07:40:35;;;;;;;6.85;5.93;;;24.60;95.40;;;;;;5156029;27;20050;-48
2022/06/17 07:43:01;;;;;;;6.55;5.95;;;25.20;94.40;;;;;;5155861;27;20039;-50
2022/06/17 07:45:29;;;;;;;9.75;5.28;;;25.30;93.30;;;;;;5155166;27;20057;-52
2022/06/17 07:47:56;;;;;;;6.15;5.07;;;25.30;93.50;;;;;;5155504;27;20122;-49
2022/06/17 07:50:29;;;;;;;10.85;5.00;;;25.40;93.60;;;;;;5155255;27;20670;-51
2022/06/17 07:52:55;;;;;;;12.00;5.18;;;25.30;91.70;;;;;;5155479;27;20583;-49
2022/06/17 07:55:22;;;;;;;6.55;4.93;;;25.40;91.70;;;;;;5137100;27;20113;-49
2022/06/17 07:57:48;;;;;;;6.87;4.77;;;25.50;90.20;;;;;;5156054;27;20043;-53
2022/06/17 08:00:30;;;;;;;8.85;4.72;;;25.30;87.10;;;;;;5137476;27;20272;-50
2022/06/17 08:02:56;;;;;;;6.55;4.72;;;25.30;88.60;;;;;;5156086;27;20047;-52
2022/06/17 08:05:21;;;;;;;6.78;4.18;;;25.50;90.40;;;;;;5156146;27;20046;-52
2022/06/17 08:07:52;;;;;;;6.70;4.60;;;25.50;89.90;;;;;;5137419;27;20070;-50
2022/06/17 08:10:21;;;;;;;8.82;4.95;;;25.40;89.10;;;;;;5155666;27;20493;-50
2022/06/17 08:12:46;;;;;;;7.30;4.70;;;25.50;87.40;;;;;;5155710;27;20039;-49
2022/06/17 08:15:12;;;;;;;8.15;4.50;;;25.60;85.10;;;;;;5155558;27;20123;-50
2022/06/17 08:17:39;;;;;;;8.50;4.88;;;26.00;87.20;;;;;;5155723;27;20083;-50
2022/06/17 08:20:09;;;;;;;8.50;4.78;;;25.90;85.40;;;;;;5155641;27;20035;-52
2022/06/17 08:22:37;;;;;;;8.82;4.50;;;26.30;86.70;;;;;;5155578;27;20121;-48
2022/06/17 08:25:03;;;;;;;6.13;4.60;;;26.50;85.60;;;;;;5155575;27;20377;-53
2022/06/17 08:27:28;;;;;;;7.32;4.57;;;26.50;84.20;;;;;;5155518;27;20042;-49
2022/06/17 08:29:54;;;;;;;6.47;4.30;;;26.80;83.80;;;;;;5155107;27;20035;-51
2022/06/17 08:35:04;;;;;;;6.95;4.30;;;26.90;80.70;;;;;;5155413;27;20129;-51
2022/06/17 08:37:31;;;;;;;4.30;3.97;;;27.00;81.40;;;;;;5155226;27;20070;-52
2022/06/17 08:39:57;;;;;;;6.57;4.53;;;27.10;79.80;;;;;;5155199;27;20053;-50
2022/06/17 08:42:31;;;;;;;5.75;4.00;;;27.00;77.80;;;;;;5155663;27;20087;-49
2022/06/17 08:45:25;;;;;;;4.20;3.80;;;26.80;76.30;;;;;;5155365;27;20046;-53
2022/06/17 08:48:16;;;;;;;7.13;3.83;;;27.20;78.20;;;;;;5155136;27;20455;-49
2022/06/17 08:51:01;;;;;;;6.43;3.47;;;26.90;79.30;;;;;;5154024;27;20050;-52
2022/06/17 08:53:43;;;;;;;5.63;3.42;;;26.60;76.20;;;;;;5155121;27;20057;-51
2022/06/17 08:56:34;;;;;;;8.10;3.95;;;26.80;75.70;;;;;;5154722;27;20480;-49
2022/06/17 08:59:06;;;;;;;9.10;3.30;;;27.00;75.50;;;;;;5154371;27;20042;-52
2022/06/17 09:01:45;;;;;;;8.85;3.50;;;27.20;75.70;;;;;;5154927;27;20049;-49
2022/06/17 09:04:20;;;;;;;6.95;3.20;;;27.50;77.30;;;;;;5155022;27;20050;-49
2022/06/17 09:07:40;;;;;;;3.97;2.38;;;27.50;77.20;;;;;;5154781;27;20039;-49
2022/06/17 09:10:09;;;;;;;4.60;2.70;;;27.40;75.10;;;;;;5070686;28;20041;-52
2022/06/17 09:13:08;;;;;;;4.68;2.80;;;27.00;71.90;;;;;;5070627;28;20053;-51
2022/06/17 09:15:45;;;;;;;4.22;2.55;;;26.50;72.90;;;;;;5053853;28;20106;-52
2022/06/17 09:18:13;;;;;;;;;;;26.40;74.90;;;;;;5071053;28;20059;-49
2022/06/17 09:20:41;;;;;;;4.32;2.58;;;26.20;74.70;;;;;;5070619;28;20264;-52
2022/06/17 09:23:10;;;;;;;5.00;2.90;;;26.00;74.80;;;;;;5070676;28;20048;-53
2022/06/17 09:25:44;;;;;;;6.28;3.42;;;25.90;76.90;;;;;;5070556;28;20060;-52
2022/06/17 09:28:19;;;;;;;3.60;2.75;;;25.90;79.00;;;;;;5053879;28;20040;-50
2022/06/17 09:30:50;;;;;;;4.90;2.70;;;;;;;;;;5070507;28;20063;-50
2022/06/17 09:33:19;;;;;;;7.05;3.05;;;25.80;78.20;;;;;;5070567;28;20059;-52
2022/06/17 09:35:50;;;;;;;4.18;3.13;;;25.80;79.80;;;;;;5070427;28;20041;-51
2022/06/17 09:38:37;;;;;;;4.18;3.10;;;25.80;79.90;;;;;;5070379;28;20481;-53
2022/06/17 09:41:17;;;;;;;5.07;3.45;;;25.80;79.20;;;;;;5070472;28;20055;-51
2022/06/17 09:44:10;;;;;;;5.25;3.42;;;26.00;78.20;;;;;;5100581;27;20062;-52
2022/06/17 09:46:41;;;;;;;4.97;3.03;;;26.40;82.00;;;;;;5145434;27;20047;-53
2022/06/17 09:49:41;;;;;;;8.20;3.58;;;26.90;81.40;;;;;;5154439;27;20103;-50
2022/06/17 09:52:13;;;;;;;6.03;3.65;;;27.40;79.70;;;;;;5069886;28;20056;-49
2022/06/17 09:54:48;;;;;;;5.40;3.45;;;27.60;76.10;;;;;;5070232;28;20495;-50
2022/06/17 09:57:35;;;;;;;5.13;3.40;;;27.50;74.50;;;;;;5070384;28;20045;-53
2022/06/17 10:00:16;;;;;;;4.57;3.60;;;27.40;74.90;;;;;;5070360;28;20142;-52
2022/06/17 10:02:57;;;;;;;4.78;3.33;;;27.20;72.40;;;;;;5070363;28;20114;-51
2022/06/17 10:05:29;;;;;;;7.22;3.70;;;27.30;73.80;;;;;;5070322;28;20044;-52
2022/06/17 10:08:20;;;;;;;6.53;3.42;;;27.30;70.90;;;;;;5070257;28;20121;-48
2022/06/17 10:10:48;;;;;;;4.40;3.30;;;27.60;72.80;;;;;;5073952;28;20044;-53
2022/06/17 10:13:28;;;;;;;6.78;3.35;;;27.50;73.20;;;;;;5073743;28;20047;-53
2022/06/17 10:19:22;;;;;;;6.28;3.58;;;27.30;72.40;;;;;;5073704;28;20067;-50
2022/06/17 10:22:14;;;;;;;6.07;3.60;;;27.20;70.30;;;;;;5073776;28;20056;-52
2022/06/17 10:25:07;;;;;;;6.68;3.80;;;27.10;70.70;;;;;;5057193;28;20044;-52
2022/06/17 10:27:58;;;;;;;7.32;3.55;;;27.30;71.60;;;;;;5111246;27;20055;-53
2022/06/17 10:30:39;;;;;;;8.75;3.08;;;27.50;72.50;;;;;;5157692;27;20085;-50
2022/06/17 10:33:06;;;;;;;5.10;3.17;;;27.60;73.40;;;;;;5157946;27;20133;-52
2022/06/17 10:35:34;;;;;;;3.47;2.50;;;27.60;73.10;;;;;;5157594;27;20074;-52
2022/06/17 10:38:05;;;;;;;4.50;2.92;;;27.90;75.90;;;;;;5157646;27;20038;-51
2022/06/17 10:40:34;;;;;;;4.45;3.10;;;28.10;73.10;;;;;;5157996;27;20042;-53
2022/06/17 10:43:04;;;;;;;4.53;3.08;;;28.30;71.50;;;;;;5157470;27;20092;-53
2022/06/17 10:45:30;;;;;;;4.03;2.70;;;28.30;72.30;;;;;;5157647;27;20043;-49
2022/06/17 10:48:22;;;;;;;5.20;2.90;;;28.30;71.60;;;;;;5157506;27;20081;-52
2022/06/17 10:50:47;;;;;;;5.20;2.50;;;28.30;69.30;;;;;;5145630;27;20054;-53
2022/06/17 10:53:24;;;;;;;4.65;2.80;;;28.20;70.10;;;;;;5157284;27;20043;-50
2022/06/17 10:55:54;;;;;;;5.65;3.17;;;28.30;71.10;;;;;;5157445;27;20047;-50
2022/06/17 10:58:30;;;;;;;4.70;2.67;;;28.10;70.20;;;;;;5157144;27;20049;-50
2022/06/17 11:01:10;;;;;;;5.78;3.20;;;28.20;69.50;;;;;;5157123;27;20087;-49
2022/06/17 11:03:39;;;;;;;3.72;2.70;;;28.20;70.10;;;;;;5138690;27;20038;-49
2022/06/17 11:06:18;;;;;;;5.88;2.70;;;28.20;71.30;;;;;;5156879;27;20046;-47
2022/06/17 11:08:58;;;;;;;4.00;2.67;;;28.10;70.00;;;;;;5157010;27;20423;-51
2022/06/17 11:14:39;;;;;;;3.70;2.60;;;28.20;72.80;;;;;;5156906;27;20046;-49
2022/06/17 11:17:12;;;;;;;7.13;2.72;;;28.30;69.80;;;;;;5157005;27;20101;-49
2022/06/17 11:19:40;;;;;;;6.57;2.92;;;28.30;69.40;;;;;;5156487;27;20041;-52
2022/06/17 11:22:06;;;;;;;6.75;2.60;;;28.40;67.60;;;;;;5156269;27;20485;-49
2022/06/17 11:24:40;;;;;;;4.00;2.78;;;28.40;70.10;;;;;;5156698;27;20070;-50
2022/06/17 11:27:21;;;;;;;4.03;2.58;;;28.50;69.10;;;;;;5156813;27;20038;-50
2022/06/17 11:29:50;;;;;;;5.28;2.70;;;28.40;68.90;;;;;;5156470;27;20457;-50
2022/06/17 11:32:29;;;;;;;4.35;2.75;;;28.50;71.10;;;;;;5156551;27;20073;-52
2022/06/17 11:35:35;;;;;;;3.47;2.88;;;28.40;70.20;;;;;;5156407;27;20061;-52
2022/06/17 11:38:11;;;;;;;3.63;2.75;;;28.30;67.60;;;;;;5156794;27;20184;-53
2022/06/17 11:40:51;;;;;;;6.85;3.00;;;28.30;69.40;;;;;;5156387;27;20484;-53
2022/06/17 11:43:38;;;;;;;3.33;2.47;;;28.20;67.30;;;;;;5156387;27;20043;-54
2022/06/17 11:46:18;;;;;;;6.50;2.67;;;28.20;69.40;;;;;;5156420;27;20058;-51
2022/06/17 11:48:47;;;;;;;9.65;3.10;;;28.30;67.50;;;;;;5156118;27;20634;-50
2022/06/17 11:51:27;;;;;;;6.00;3.28;;;28.00;66.60;;;;;;5155791;27;20065;-52
2022/06/17 11:54:00;;;;;;;3.90;3.35;;;28.20;67.40;;;;;;5156008;27;20081;-52
2022/06/17 11:56:34;;;;;;;7.35;3.00;;;28.10;66.40;;;;;;5156051;27;20038;-53
2022/06/17 11:59:08;;;;;;;4.25;2.63;;;28.10;66.60;;;;;;5156033;27;20121;-53
2022/06/17 12:01:34;;;;;;;3.90;2.45;;;28.30;67.60;;;;;;5155908;27;20039;-52
2022/06/17 12:04:00;;;;;;;4.30;2.80;;;28.40;68.60;;;;;;5155963;27;20057;-50
2022/06/17 12:06:43;;;;;;;4.78;2.55;;;28.40;66.80;;;;;;5137532;27;20129;-50
2022/06/17 12:09:38;;;;;;;6.05;2.78;;;28.70;67.50;;;;;;5155719;27;20463;-56
2022/06/17 12:12:13;;;;;;;4.32;3.22;;;28.80;67.00;;;;;;5155963;27;20046;-51
2022/06/17 12:14:42;;;;;;;4.78;2.70;;;28.80;65.00;;;;;;5155526;27;20117;-49
2022/06/17 12:17:12;;;;;;;3.25;2.45;;;29.00;66.90;;;;;;5155674;27;20042;-53
2022/06/17 12:19:38;;;;;;;4.65;2.78;;;29.40;67.00;;;;;;5155582;27;20365;-49
2022/06/17 12:22:09;;;;;;;3.55;2.80;;;29.70;64.70;;;;;;5155781;27;20035;-51
2022/06/17 12:25:07;;;;;;;4.53;3.05;;;30.10;66.60;;;;;;5155326;27;20388;-51
2022/06/17 12:27:57;;;;;;;4.65;2.97;;;29.90;64.10;;;;;;5126826;27;20111;-50
2022/06/17 12:30:32;;;;;;;3.53;2.88;;;30.00;67.10;;;;;;5155614;27;20146;-52
2022/06/17 12:33:04;;;;;;;6.85;3.45;;;30.10;64.40;;;;;;5136916;27;20054;-48
2022/06/17 12:35:58;;;;;;;3.13;2.67;;;30.10;62.10;;;;;;5155367;27;20039;-50
2022/06/17 12:38:37;;;;;;;5.65;3.05;;;30.30;64.50;;;;;;5155352;27;20453;-50
2022/06/17 12:41:20;;;;;;;5.60;3.40;;;30.10;61.20;;;;;;5155326;27;20087;-50
2022/06/17 12:44:14;;;;;;;6.53;3.20;;;30.00;61.00;;;;;;5155224;27;20091;-52
2022/06/17 12:46:56;;;;;;;8.55;3.75;;;29.50;61.50;;;;;;5136873;27;20122;-52
2022/06/17 12:55:33;;;;;;;5.88;2.90;;;29.50;63.40;;;;;;5155027;27;20046;-54
2022/06/17 12:58:06;;;;;;;5.70;3.00;;;29.40;61.50;;;;;;5136735;27;20473;-50
2022/06/17 13:00:41;;;;;;;6.78;2.90;;;29.60;61.20;;;;;;5136236;27;20051;-51
2022/06/17 13:03:22;;;;;;;5.47;3.00;;;29.60;60.10;;;;;;5154790;27;20064;-54
2022/06/17 13:05:48;;;;;;;4.97;3.00;;;29.90;61.80;;;;;;5155001;27;20065;-51
2022/06/17 13:08:26;;;;;;;5.53;2.85;;;29.50;60.70;;;;;;5154728;27;20039;-50
2022/06/17 13:11:14;;;;;;;3.55;2.70;;;29.70;59.60;;;;;;5154715;27;20538;-52
2022/06/17 13:13:51;;;;;;;7.43;3.10;;;29.90;62.00;;;;;;5154812;27;20046;-53
2022/06/17 13:16:35;;;;;;;;;;;29.80;58.20;;;;;;5155162;27;20042;-53
2022/06/17 13:19:11;;;;;;;7.10;3.10;;;30.00;62.10;;;;;;5154723;27;20338;-52
2022/06/17 13:21:57;;;;;;;4.18;3.13;;;30.10;62.20;;;;;;5154816;27;20051;-49
2022/06/17 13:24:50;;;;;;;4.72;3.38;;;30.10;60.20;;;;;;5155073;27;20132;-48
2022/06/17 13:27:42;;;;;;;3.85;3.10;;;30.30;60.70;;;;;;5154570;27;20394;-49
2022/06/17 13:30:30;;;;;;;5.07;3.05;;;30.50;60.10;;;;;;5154456;27;20488;-53
2022/06/17 13:33:03;;;;;;;5.82;2.70;;;31.00;59.90;;;;;;5154570;27;20043;-50